Back to Top

Language: 

My Weather Underground Personal Weather Station Historical Data with Graphs...

Delerius Weather Station Historical Data
 
Daily Summary for May 23, 2018 Units:  Metric    English   Both
« Previous Day
Next Day »
Daily Weekly Monthly Yearly Custom
  Current: High: Low: Average:
Temperature: 12.6 °C 12.8 °C 9.7 °C 10.3 °C
Dew Point: 8.7 °C 9.1 °C 7.4 °C 7.7 °C
Humidity: 77 % 87 % 77 % 84 %
Wind Speed: 8 km/h 12.9 km/h 0 km/h 6.6 km/h
Wind Gust: 12.9 km/h 22.5 km/h - -
Wind:NNE - - ESE
Pressure: 1027 hPa 1027 hPa 1024.3 hPa -
Precipitation: 0 mm      
Historical Graphs
 
 
Tabular Data for May 23, 2018
Time Temperature Dew Point Pressure Wind Wind Speed Wind Gust Humidity Rainfall Rate (Hourly) solar Conditions
00:04 10.2 °C 7.6 °C 1024.6 hPa NNW 4.8 km/h 11.3 km/h 84 % 0 mm 0 W/m2
00:09 10.2 °C 7.6 °C 1024.6 hPa NNW 11.3 km/h 20.9 km/h 84 % 0 mm 0 W/m2
00:14 10.2 °C 7.6 °C 1024.6 hPa North 6.4 km/h 17.7 km/h 84 % 0 mm 0 W/m2
00:19 10.3 °C 7.9 °C 1024.6 hPa NNW 9.7 km/h 20.9 km/h 85 % 0 mm 0 W/m2
00:24 10.3 °C 7.7 °C 1024.6 hPa North 8 km/h 16.1 km/h 84 % 0 mm 0 W/m2
00:29 10.3 °C 7.7 °C 1024.6 hPa NNE 8 km/h 12.9 km/h 84 % 0 mm 0 W/m2
00:35 10.3 °C 7.7 °C 1024.6 hPa North 8 km/h 12.9 km/h 84 % 0 mm 0 W/m2
00:40 10.3 °C 7.7 °C 1024.6 hPa North 11.3 km/h 17.7 km/h 84 % 0 mm 0 W/m2
00:45 10.3 °C 7.7 °C 1024.6 hPa NNE 1.6 km/h 9.7 km/h 84 % 0 mm 0 W/m2
00:50 10.2 °C 7.6 °C 1024.6 hPa North 6.4 km/h 16.1 km/h 84 % 0 mm 0 W/m2
00:55 10.2 °C 7.6 °C 1024.6 hPa NNW 1.6 km/h 11.3 km/h 84 % 0 mm 0 W/m2
01:00 10.2 °C 7.6 °C 1024.6 hPa North 9.7 km/h 16.1 km/h 84 % 0 mm 0 W/m2
01:05 10.2 °C 7.6 °C 1024.6 hPa North 8 km/h 14.5 km/h 84 % 0 mm 0 W/m2
01:07 10.2 °C 7.6 °C 1024.6 hPa NNE 6.4 km/h 12.9 km/h 84 % 0 mm 0 W/m2
01:12 10.2 °C 7.6 °C 1024.3 hPa North 11.3 km/h 17.7 km/h 84 % 0 mm 0 W/m2
01:17 10.2 °C 7.6 °C 1024.3 hPa North 11.3 km/h 20.9 km/h 84 % 0 mm 0 W/m2
01:22 10.1 °C 7.5 °C 1024.3 hPa North 12.9 km/h 22.5 km/h 84 % 0 mm 0 W/m2
01:27 10.1 °C 7.5 °C 1024.3 hPa North 12.9 km/h 22.5 km/h 84 % 0 mm 0 W/m2
01:32 10.1 °C 7.5 °C 1024.3 hPa North 9.7 km/h 16.1 km/h 84 % 0 mm 0 W/m2
01:37 10 °C 7.6 °C 1024.3 hPa North 8 km/h 20.9 km/h 85 % 0 mm 0 W/m2
01:42 10 °C 7.6 °C 1024.3 hPa North 11.3 km/h 17.7 km/h 85 % 0 mm 0 W/m2
01:47 10 °C 7.6 °C 1024.3 hPa NNE 8 km/h 14.5 km/h 85 % 0 mm 0 W/m2
01:52 10 °C 7.6 °C 1024.3 hPa NNE 6.4 km/h 16.1 km/h 85 % 0 mm 0 W/m2
01:57 10 °C 7.6 °C 1024.6 hPa North 11.3 km/h 20.9 km/h 85 % 0 mm 0 W/m2
02:02 10 °C 7.6 °C 1024.6 hPa North 8 km/h 17.7 km/h 85 % 0 mm 0 W/m2
02:05 10 °C 7.6 °C 1024.6 hPa North 4.8 km/h 12.9 km/h 85 % 0 mm 0 W/m2
02:10 10 °C 7.6 °C 1024.6 hPa North 6.4 km/h 14.5 km/h 85 % 0 mm 0 W/m2
02:15 10 °C 7.6 °C 1024.6 hPa North 8 km/h 14.5 km/h 85 % 0 mm 0 W/m2
02:20 10 °C 7.6 °C 1024.3 hPa NNW 8 km/h 14.5 km/h 85 % 0 mm 0 W/m2
02:25 10 °C 7.6 °C 1024.3 hPa NNE 9.7 km/h 17.7 km/h 85 % 0 mm 0 W/m2
02:30 9.9 °C 7.5 °C 1024.3 hPa North 4.8 km/h 14.5 km/h 85 % 0 mm 0 W/m2
02:33 9.9 °C 7.5 °C 1024.3 hPa North 6.4 km/h 12.9 km/h 85 % 0 mm 0 W/m2
02:38 9.9 °C 7.5 °C 1024.3 hPa North 11.3 km/h 22.5 km/h 85 % 0 mm 0 W/m2
02:43 9.9 °C 7.5 °C 1024.6 hPa North 8 km/h 14.5 km/h 85 % 0 mm 0 W/m2
02:48 9.9 °C 7.5 °C 1024.6 hPa NNE 3.2 km/h 11.3 km/h 85 % 0 mm 0 W/m2
02:50 9.9 °C 7.5 °C 1024.6 hPa NNE 6.4 km/h 14.5 km/h 85 % 0 mm 0 W/m2
02:55 9.8 °C 7.4 °C 1024.6 hPa North 8 km/h 14.5 km/h 85 % 0 mm 0 W/m2
03:00 9.8 °C 7.4 °C 1024.6 hPa North 6.4 km/h 12.9 km/h 85 % 0 mm 0 W/m2
03:05 9.8 °C 7.4 °C 1024.6 hPa NNE 9.7 km/h 17.7 km/h 85 % 0 mm 0 W/m2
03:10 9.8 °C 7.6 °C 1024.6 hPa North 3.2 km/h 9.7 km/h 86 % 0 mm 0 W/m2
03:15 9.8 °C 7.6 °C 1024.6 hPa North 9.7 km/h 16.1 km/h 86 % 0 mm 0 W/m2
03:20 9.8 °C 7.6 °C 1024.6 hPa NNW 9.7 km/h 16.1 km/h 86 % 0 mm 0 W/m2
03:25 9.8 °C 7.6 °C 1024.6 hPa NNW 8 km/h 16.1 km/h 86 % 0 mm 0 W/m2
03:30 9.8 °C 7.6 °C 1024.6 hPa North 8 km/h 17.7 km/h 86 % 0 mm 0 W/m2
03:35 9.8 °C 7.6 °C 1024.6 hPa North 9.7 km/h 16.1 km/h 86 % 0 mm 0 W/m2
03:40 9.7 °C 7.4 °C 1024.6 hPa North 4.8 km/h 14.5 km/h 86 % 0 mm 0 W/m2
03:45 9.7 °C 7.4 °C 1024.9 hPa NNW 8 km/h 16.1 km/h 86 % 0 mm 0 W/m2
03:50 9.8 °C 7.6 °C 1024.6 hPa NNE 1.6 km/h 8 km/h 86 % 0 mm 0 W/m2
03:55 9.7 °C 7.4 °C 1024.9 hPa North 9.7 km/h 16.1 km/h 86 % 0 mm 0 W/m2
04:00 9.7 °C 7.4 °C 1024.9 hPa North 11.3 km/h 17.7 km/h 86 % 0 mm 0 W/m2
04:05 9.7 °C 7.4 °C 1024.9 hPa North 9.7 km/h 14.5 km/h 86 % 0 mm 0 W/m2
04:10 9.7 °C 7.4 °C 1024.9 hPa North 9.7 km/h 20.9 km/h 86 % 0 mm 0 W/m2
04:15 9.7 °C 7.4 °C 1024.9 hPa North 6.4 km/h 16.1 km/h 86 % 0 mm 0 W/m2
04:20 9.7 °C 7.4 °C 1024.9 hPa North 6.4 km/h 19.3 km/h 86 % 0 mm 0 W/m2
04:25 9.7 °C 7.4 °C 1024.9 hPa NNE 6.4 km/h 14.5 km/h 86 % 0 mm 0 W/m2
04:30 9.7 °C 7.4 °C 1024.9 hPa North 6.4 km/h 12.9 km/h 86 % 0 mm 0 W/m2
04:35 9.7 °C 7.4 °C 1024.9 hPa NNW 8 km/h 16.1 km/h 86 % 0 mm 0 W/m2
04:40 9.7 °C 7.4 °C 1024.9 hPa NNE 6.4 km/h 16.1 km/h 86 % 0 mm 0 W/m2
04:45 9.7 °C 7.4 °C 1024.9 hPa NNE 9.7 km/h 14.5 km/h 86 % 0 mm 0 W/m2
04:50 9.7 °C 7.4 °C 1024.9 hPa North 8 km/h 12.9 km/h 86 % 0 mm 0 W/m2
04:55 9.7 °C 7.4 °C 1024.9 hPa North 4.8 km/h 14.5 km/h 86 % 0 mm 0 W/m2
05:00 9.7 °C 7.4 °C 1024.9 hPa North 6.4 km/h 12.9 km/h 86 % 0 mm 0 W/m2
05:05 9.7 °C 7.4 °C 1024.9 hPa North 4.8 km/h 11.3 km/h 86 % 0 mm 0 W/m2
05:10 9.8 °C 7.6 °C 1024.9 hPa NNW 1.6 km/h 9.7 km/h 86 % 0 mm 5 W/m2
05:15 9.8 °C 7.6 °C 1024.9 hPa North 3.2 km/h 9.7 km/h 86 % 0 mm 5 W/m2
05:20 9.8 °C 7.6 °C 1025.3 hPa North 8 km/h 14.5 km/h 86 % 0 mm 7 W/m2
05:25 9.7 °C 7.4 °C 1025.3 hPa North 8 km/h 17.7 km/h 86 % 0 mm 9 W/m2
05:30 9.7 °C 7.4 °C 1025.3 hPa NNE 8 km/h 12.9 km/h 86 % 0 mm 11 W/m2
05:35 9.7 °C 7.4 °C 1025.3 hPa North 8 km/h 12.9 km/h 86 % 0 mm 14 W/m2
05:40 9.7 °C 7.4 °C 1025.3 hPa NNE 9.7 km/h 12.9 km/h 86 % 0 mm 12 W/m2
05:46 9.7 °C 7.7 °C 1025.3 hPa NNE 8 km/h 12.9 km/h 87 % 0 mm 14 W/m2
05:51 9.7 °C 7.7 °C 1025.3 hPa NNE 3.2 km/h 11.3 km/h 87 % 0 mm 18 W/m2
05:56 9.8 °C 7.6 °C 1025.3 hPa North 8 km/h 14.5 km/h 86 % 0 mm 16 W/m2
06:01 9.8 °C 7.6 °C 1025.3 hPa NNE 8 km/h 16.1 km/h 86 % 0 mm 21 W/m2
06:06 9.8 °C 7.6 °C 1025.6 hPa NNE 9.7 km/h 16.1 km/h 86 % 0 mm 21 W/m2
06:11 9.8 °C 7.6 °C 1025.6 hPa North 8 km/h 12.9 km/h 86 % 0 mm 30 W/m2
06:16 9.8 °C 7.6 °C 1025.6 hPa NNE 6.4 km/h 14.5 km/h 86 % 0 mm 32 W/m2
06:21 9.8 °C 7.6 °C 1025.6 hPa NNE 9.7 km/h 16.1 km/h 86 % 0 mm 33 W/m2
06:26 9.8 °C 7.4 °C 1025.6 hPa NNE 6.4 km/h 11.3 km/h 85 % 0 mm 35 W/m2
06:31 9.8 °C 7.4 °C 1025.6 hPa NNE 4.8 km/h 11.3 km/h 85 % 0 mm 40 W/m2
06:36 9.8 °C 7.4 °C 1026 hPa NE 4.8 km/h 14.5 km/h 85 % 0 mm 47 W/m2
06:41 9.8 °C 7.4 °C 1026 hPa NNE 1.6 km/h 8 km/h 85 % 0 mm 53 W/m2
06:46 9.8 °C 7.4 °C 1026 hPa NE 8 km/h 19.3 km/h 85 % 0 mm 47 W/m2
06:51 9.8 °C 7.4 °C 1026 hPa NNE 8 km/h 16.1 km/h 85 % 0 mm 51 W/m2
06:56 9.9 °C 7.5 °C 1026 hPa ENE 1.6 km/h 6.4 km/h 85 % 0 mm 53 W/m2
07:01 9.9 °C 7.5 °C 1026 hPa Calm   4.8 km/h 85 % 0 mm 56 W/m2
07:06 9.9 °C 7.5 °C 1026 hPa NE 4.8 km/h 12.9 km/h 85 % 0 mm 54 W/m2
07:11 9.9 °C 7.5 °C 1026 hPa ENE 3.2 km/h 9.7 km/h 85 % 0 mm 56 W/m2
07:16 9.9 °C 7.5 °C 1026.3 hPa NE 4.8 km/h 9.7 km/h 85 % 0 mm 54 W/m2
07:21 10 °C 7.8 °C 1026 hPa NW 1.6 km/h 9.7 km/h 86 % 0 mm 53 W/m2
07:26 10.1 °C 7.7 °C 1026.3 hPa NNE 3.2 km/h 9.7 km/h 85 % 0 mm 65 W/m2
07:31 10.1 °C 7.7 °C 1026.3 hPa NE 4.8 km/h 12.9 km/h 85 % 0 mm 77 W/m2
07:36 10 °C 7.6 °C 1026.3 hPa NE 4.8 km/h 17.7 km/h 85 % 0 mm 100 W/m2
07:41 10 °C 7.6 °C 1026.3 hPa NNE 6.4 km/h 14.5 km/h 85 % 0 mm 107 W/m2
07:46 10.1 °C 7.5 °C 1026.3 hPa ENE 1.6 km/h 8 km/h 84 % 0 mm 109 W/m2
07:51 10.1 °C 7.5 °C 1026.3 hPa NNE 4.8 km/h 12.9 km/h 84 % 0 mm 102 W/m2
07:56 10.2 °C 7.6 °C 1026.3 hPa NNE 1.6 km/h 11.3 km/h 84 % 0 mm 111 W/m2
08:01 10.2 °C 7.6 °C 1026.3 hPa ENE 4.8 km/h 11.3 km/h 84 % 0 mm 95 W/m2
08:06 10.2 °C 7.6 °C 1026.3 hPa ENE 8 km/h 16.1 km/h 84 % 0 mm 116 W/m2
08:11 10.2 °C 7.6 °C 1026.3 hPa NNE 6.4 km/h 14.5 km/h 84 % 0 mm 111 W/m2
08:16 10.3 °C 7.7 °C 1026.6 hPa ENE 1.6 km/h 12.9 km/h 84 % 0 mm 118 W/m2
08:21 10.3 °C 7.7 °C 1026.6 hPa NNE 3.2 km/h 12.9 km/h 84 % 0 mm 120 W/m2
08:26 10.4 °C 7.8 °C 1026.6 hPa NE 3.2 km/h 11.3 km/h 84 % 0 mm 114 W/m2
08:31 10.6 °C 8 °C 1026.6 hPa ENE 1.6 km/h 6.4 km/h 84 % 0 mm 120 W/m2
08:36 10.5 °C 7.7 °C 1026.6 hPa ENE 9.7 km/h 12.9 km/h 83 % 0 mm 123 W/m2
08:41 10.4 °C 7.6 °C 1026.6 hPa NE 3.2 km/h 11.3 km/h 83 % 0 mm 121 W/m2
08:46 10.5 °C 7.7 °C 1026.6 hPa NE 3.2 km/h 11.3 km/h 83 % 0 mm 130 W/m2
08:51 10.6 °C 7.8 °C 1026.6 hPa NE 6.4 km/h 16.1 km/h 83 % 0 mm 128 W/m2
08:56 10.6 °C 7.7 °C 1026.6 hPa NNE 4.8 km/h 14.5 km/h 82 % 0 mm 125 W/m2
09:01 10.6 °C 7.8 °C 1026.6 hPa ENE 1.6 km/h 11.3 km/h 83 % 0 mm 130 W/m2
09:06 10.6 °C 7.8 °C 1026.6 hPa NE 9.7 km/h 17.7 km/h 83 % 0 mm 135 W/m2
09:11 10.7 °C 7.9 °C 1026.6 hPa NNE 6.4 km/h 12.9 km/h 83 % 0 mm 162 W/m2
09:16 10.7 °C 7.9 °C 1027 hPa NE 6.4 km/h 19.3 km/h 83 % 0 mm 186 W/m2
09:21 10.8 °C 7.8 °C 1027 hPa ENE 8 km/h 11.3 km/h 82 % 0 mm 165 W/m2
09:26 10.8 °C 7.8 °C 1027 hPa NNE 9.7 km/h 19.3 km/h 82 % 0 mm 162 W/m2
09:31 10.8 °C 7.8 °C 1027 hPa NNE 8 km/h 16.1 km/h 82 % 0 mm 156 W/m2
09:36 10.8 °C 7.8 °C 1027 hPa NE 8 km/h 16.1 km/h 82 % 0 mm 153 W/m2
09:41 10.8 °C 8 °C 1027 hPa NNE 3.2 km/h 12.9 km/h 83 % 0 mm 165 W/m2
09:46 10.9 °C 7.9 °C 1027 hPa NNE 8 km/h 14.5 km/h 82 % 0 mm 171 W/m2
09:51 10.9 °C 8.1 °C 1027 hPa ENE 8 km/h 12.9 km/h 83 % 0 mm 190 W/m2
09:56 11 °C 8.1 °C 1027 hPa NE 6.4 km/h 16.1 km/h 82 % 0 mm 181 W/m2
10:01 11 °C 8.1 °C 1027 hPa NNE 3.2 km/h 11.3 km/h 82 % 0 mm 158 W/m2
10:06 11.1 °C 8.2 °C 1027 hPa ENE 6.4 km/h 17.7 km/h 82 % 0 mm 216 W/m2
10:11 11.2 °C 8.2 °C 1027 hPa ENE 6.4 km/h 12.9 km/h 82 % 0 mm 202 W/m2
10:16 11.3 °C 8.3 °C 1027 hPa NE 4.8 km/h 12.9 km/h 82 % 0 mm 239 W/m2
10:21 11.4 °C 8.4 °C 1027 hPa Calm   3.2 km/h 82 % 0 mm 216 W/m2
10:26 11.7 °C 8.6 °C 1027 hPa ENE 6.4 km/h 12.9 km/h 81 % 0 mm 271 W/m2
10:31 11.8 °C 8.4 °C 1027 hPa NE 9.7 km/h 14.5 km/h 80 % 0 mm 285 W/m2
10:36 11.8 °C 8.3 °C 1027 hPa ENE 9.7 km/h 19.3 km/h 79 % 0 mm 281 W/m2
10:41 11.9 °C 8.4 °C 1027 hPa NE 8 km/h 14.5 km/h 79 % 0 mm 299 W/m2
10:46 11.9 °C 8.4 °C 1027 hPa ENE 9.7 km/h 17.7 km/h 79 % 0 mm 285 W/m2
10:51 11.9 °C 8.4 °C 1027 hPa ENE 9.7 km/h 16.1 km/h 79 % 0 mm 253 W/m2
10:57 12 °C 8.7 °C 1027 hPa ENE 3.2 km/h 11.3 km/h 80 % 0 mm 315 W/m2
11:02 12.2 °C 8.7 °C 1027 hPa NE 6.4 km/h 12.9 km/h 79 % 0 mm 264 W/m2
11:07 12.4 °C 8.8 °C 1027 hPa NNE 1.6 km/h 8 km/h 79 % 0 mm 334 W/m2
11:12 12.6 °C 8.9 °C 1027 hPa NE 3.2 km/h 9.7 km/h 78 % 0 mm 265 W/m2
11:17 12.7 °C 8.9 °C 1027 hPa NE 8 km/h 12.9 km/h 78 % 0 mm 262 W/m2
11:22 12.8 °C 9.1 °C 1027 hPa ENE 4.8 km/h 9.7 km/h 78 % 0 mm 248 W/m2
11:27 12.7 °C 8.8 °C 1027 hPa NE 8 km/h 14.5 km/h 77 % 0 mm 253 W/m2
11:32 12.6 °C 8.7 °C 1027 hPa NNE 8 km/h 12.9 km/h 77 % 0 mm 385 W/m2
Delerius-Weather
Compliments of Weather Underground - 1.5 mb

Data updates at regular intervals.